首页
METAR-TAF:

METAR-TAF

机场 :

克里沃罗格, 乌克兰

纬度: 48-03N, 经度: 033-13-12E, 海拔: 124米

当前天气观测

该预报发布于23分钟前的20:30 UTC
风速10节,风向东转东北
温度 11°C
湿度 40%
气压 1019 hPa
能见度10公里或以上
1500米以下无云,无积雨云

METAR: UKDR 232030Z 06005MPS CAVOK 11/M02 Q1019 R18/09//70 NOSIG

时间: 23:53 (20:53 UTC)

预报

该预报发布于3小时和43分钟前的17:10 UTC
预报有效从23日的 18点(UTC)到 24日的 18点(UTC)
风速6节,风向东北
能见度10公里或以上
多云层高于3000英尺

TAF: UKDR 231710Z 2318/2418 04003MPS 9999 BKN030

超过4000个机场的气象观测和天气预报(METAR&TAF报告)。

可查询的气象台以黄色和红色小点在地图上表示。

将鼠标移到小点上方,可查看气象台名称。

然后点击查看天气观测和预报。

如需切换地图:点击带黑十字的绿色按钮放大地图;点击带横线的绿色按钮缩小地图;或者点击绿色箭头查看邻近地区的地图。


METAR-TAF: